createdAt,value
2022-10-28T00:00:41.904Z,609.17
2022-10-28T00:02:34.183Z,1872.47
2022-10-28T00:04:06.696Z,980.27
2022-10-28T00:05:38.983Z,1503.97
2022-10-28T00:07:11.187Z,1020.97
2022-10-28T00:08:44.253Z,1001.43
2022-10-28T00:10:16.832Z,1599.67
2022-10-28T00:11:49.198Z,1999.90
2022-10-28T00:13:21.427Z,1038.50
2022-10-28T00:14:54.178Z,1655.13
2022-10-28T00:16:34.794Z,1727.53
2022-10-28T00:18:07.162Z,1337.80
2022-10-28T00:19:39.325Z,1893.93
2022-10-28T00:21:22.817Z,742.93
2022-10-28T00:22:55.096Z,1999.90
2022-10-28T00:24:27.285Z,1999.90
2022-10-28T00:26:21.771Z,1555.63
2022-10-28T00:27:54.057Z,1999.90
2022-10-28T00:29:26.458Z,1999.90
2022-10-28T00:31:05.953Z,1642.63
2022-10-28T00:32:38.476Z,1007.53
2022-10-28T00:34:18.567Z,810.43
2022-10-28T00:35:50.779Z,1202.83
2022-10-28T00:37:23.984Z,803.23
2022-10-28T00:38:57.181Z,1082.73
2022-10-28T00:40:35.183Z,1149.43
2022-10-28T00:42:07.769Z,882.47
2022-10-28T00:43:45.071Z,467.50
2022-10-28T00:45:17.325Z,1207.40
2022-10-28T00:46:53.259Z,1016.57
2022-10-28T00:48:25.489Z,925.87
2022-10-28T00:50:14.007Z,435.87
2022-10-28T00:51:52.383Z,1698.57
2022-10-28T00:53:32.367Z,1312.23
2022-10-28T00:55:05.412Z,1611.70
2022-10-28T00:56:45.811Z,1832.90
2022-10-28T00:58:24.874Z,1999.90
2022-10-28T01:00:00.708Z,1999.90
2022-10-28T01:01:33.431Z,1901.73
2022-10-28T01:03:06.112Z,1378.13
2022-10-28T01:04:39.440Z,1189.03
2022-10-28T01:06:12.055Z,1110.37
2022-10-28T01:07:45.348Z,1999.90
2022-10-28T01:09:18.012Z,857.70
2022-10-28T01:11:17.911Z,1410.10
2022-10-28T01:13:18.045Z,833.80
2022-10-28T01:15:24.053Z,950.60
2022-10-28T01:17:44.457Z,1154.77
2022-10-28T01:20:08.600Z,721.07
2022-10-28T01:22:04.666Z,1288.83
2022-10-28T01:23:55.169Z,1335.33
2022-10-28T01:25:52.248Z,727.60
2022-10-28T01:27:55.042Z,914.83
2022-10-28T01:30:06.115Z,704.90
2022-10-28T01:31:59.128Z,613.57
2022-10-28T01:33:36.935Z,700.80
2022-10-28T01:35:45.072Z,507.20
2022-10-28T01:38:14.649Z,463.23
2022-10-28T01:40:26.909Z,471.67
2022-10-28T01:42:41.972Z,479.40
2022-10-28T01:44:28.868Z,369.70
2022-10-28T01:46:11.467Z,366.13
2022-10-28T01:48:08.769Z,232.50
2022-10-28T01:49:59.407Z,247.67
2022-10-28T01:51:44.969Z,339.27
2022-10-28T01:53:27.749Z,280.40
2022-10-28T01:55:11.936Z,309.37
2022-10-28T01:56:47.209Z,379.33
2022-10-28T01:58:27.432Z,353.63
2022-10-28T02:00:02.719Z,429.43
2022-10-28T02:01:36.678Z,316.77
2022-10-28T02:03:10.553Z,379.03
2022-10-28T02:04:42.982Z,327.73
2022-10-28T02:06:23.886Z,411.30
2022-10-28T02:08:06.989Z,415.73
2022-10-28T02:10:16.585Z,384.97
2022-10-28T02:12:25.366Z,290.73
2022-10-28T02:14:07.819Z,293.77
2022-10-28T02:15:59.838Z,365.50
2022-10-28T02:18:24.435Z,421.87
2022-10-28T02:20:30.459Z,422.17
2022-10-28T02:22:18.289Z,503.37
2022-10-28T02:24:08.535Z,376.00
2022-10-28T02:25:56.806Z,364.27
2022-10-28T02:27:47.114Z,286.73
2022-10-28T02:29:35.953Z,474.73
2022-10-28T02:31:29.873Z,638.90
2022-10-28T02:33:06.647Z,627.23
2022-10-28T02:34:46.963Z,1359.30
2022-10-28T02:36:23.181Z,1999.90
2022-10-28T02:37:58.588Z,1339.33
2022-10-28T02:39:40.268Z,1999.90
2022-10-28T02:41:40.589Z,1999.90
2022-10-28T02:43:17.590Z,1784.37
2022-10-28T02:45:10.628Z,1804.60
2022-10-28T02:46:48.899Z,1999.90
2022-10-28T02:48:33.441Z,1999.90
2022-10-28T02:50:15.435Z,1999.90
2022-10-28T02:52:02.075Z,1999.90
2022-10-28T02:54:03.696Z,1999.90
2022-10-28T02:55:44.824Z,1999.90
2022-10-28T02:57:25.810Z,1999.90
2022-10-28T02:58:58.247Z,1999.90
2022-10-28T03:00:30.516Z,874.00
2022-10-28T03:02:03.649Z,1212.67
2022-10-28T03:03:36.004Z,1999.90
2022-10-28T03:05:08.871Z,1096.57
2022-10-28T03:06:41.124Z,1999.90
2022-10-28T03:08:13.741Z,1999.90
2022-10-28T03:09:46.060Z,1773.70
2022-10-28T03:11:38.228Z,1698.07
2022-10-28T03:13:10.626Z,1679.00
2022-10-28T03:14:42.974Z,1664.07
2022-10-28T03:16:15.255Z,1468.20
2022-10-28T03:17:47.474Z,1815.53
2022-10-28T03:19:19.824Z,1999.90
2022-10-28T03:20:55.377Z,1937.17
2022-10-28T03:22:30.296Z,1999.90
2022-10-28T03:24:02.757Z,1257.23
2022-10-28T03:25:35.022Z,1926.63
2022-10-28T03:27:07.290Z,1391.37
2022-10-28T03:28:39.910Z,1999.90
2022-10-28T03:30:14.484Z,673.00
2022-10-28T03:31:46.798Z,990.77
2022-10-28T03:33:18.979Z,1999.90
2022-10-28T03:34:51.670Z,1027.67
2022-10-28T03:36:24.200Z,1727.13
2022-10-28T03:37:56.465Z,1417.10
2022-10-28T03:39:28.669Z,1517.43
2022-10-28T03:41:01.009Z,1529.73
2022-10-28T03:42:35.451Z,1027.23
2022-10-28T03:44:09.843Z,1402.50
2022-10-28T03:45:42.122Z,1999.90
2022-10-28T03:47:14.537Z,1519.30
2022-10-28T03:48:46.774Z,1999.90
2022-10-28T03:50:19.054Z,1999.90
2022-10-28T03:51:51.259Z,1327.50
2022-10-28T03:53:26.320Z,1984.50
2022-10-28T03:54:59.971Z,1683.20
2022-10-28T03:56:32.149Z,1880.37
2022-10-28T03:58:04.627Z,1600.27
2022-10-28T03:59:36.883Z,1587.70
2022-10-28T04:01:09.266Z,1653.23
2022-10-28T04:02:41.659Z,1999.90
2022-10-28T04:04:14.166Z,1829.73
2022-10-28T04:05:48.406Z,1449.20
2022-10-28T04:07:20.654Z,771.67
2022-10-28T04:08:52.856Z,1664.23
2022-10-28T04:10:25.369Z,1231.27
2022-10-28T04:11:57.613Z,1214.57
2022-10-28T04:13:29.909Z,998.93
2022-10-28T04:15:02.245Z,944.00
2022-10-28T04:16:34.760Z,1062.20
2022-10-28T04:18:07.253Z,1801.10
2022-10-28T04:19:39.646Z,1510.20
2022-10-28T04:21:12.304Z,1246.90
2022-10-28T04:22:44.779Z,1335.53
2022-10-28T04:24:17.007Z,1328.53
2022-10-28T04:25:54.200Z,1123.80
2022-10-28T04:27:26.831Z,755.40
2022-10-28T04:28:59.148Z,1448.90
2022-10-28T04:30:31.441Z,929.00
2022-10-28T04:32:04.112Z,633.80
2022-10-28T04:33:36.587Z,912.47
2022-10-28T04:35:11.472Z,1371.10
2022-10-28T04:36:43.728Z,995.07
2022-10-28T04:38:16.235Z,553.83
2022-10-28T04:39:49.076Z,754.93
2022-10-28T04:41:21.323Z,869.97
2022-10-28T04:42:54.029Z,652.43
2022-10-28T04:44:26.507Z,1035.37
2022-10-28T04:46:02.308Z,729.27
2022-10-28T04:47:34.750Z,835.27
2022-10-28T04:49:07.287Z,832.47
2022-10-28T04:50:40.030Z,752.50
2022-10-28T04:52:14.919Z,764.00
2022-10-28T04:53:48.197Z,1098.20
2022-10-28T04:55:21.074Z,1658.83
2022-10-28T04:56:55.265Z,859.57
2022-10-28T04:58:27.764Z,514.20
2022-10-28T04:59:59.932Z,786.37
2022-10-28T05:01:32.452Z,635.03
2022-10-28T05:03:04.832Z,668.50
2022-10-28T05:04:37.068Z,683.67
2022-10-28T05:06:09.356Z,578.83
2022-10-28T05:07:42.060Z,579.13
2022-10-28T05:09:14.494Z,879.37
2022-10-28T05:10:50.084Z,645.70
2022-10-28T05:12:22.562Z,499.33
2022-10-28T05:13:54.851Z,1146.13
2022-10-28T05:15:26.990Z,866.67
2022-10-28T05:16:59.473Z,733.20
2022-10-28T05:18:31.743Z,556.00
2022-10-28T05:20:05.264Z,673.80
2022-10-28T05:21:37.493Z,739.57
2022-10-28T05:23:10.570Z,849.50
2022-10-28T05:24:42.775Z,621.53
2022-10-28T05:26:15.286Z,898.37
2022-10-28T05:27:48.140Z,901.57
2022-10-28T05:29:20.649Z,1014.70
2022-10-28T05:30:52.838Z,859.77
2022-10-28T05:32:25.047Z,673.87
2022-10-28T05:33:57.428Z,1241.07
2022-10-28T05:35:33.165Z,816.40
2022-10-28T05:37:05.339Z,496.63
2022-10-28T05:38:38.038Z,622.70
2022-10-28T05:40:11.337Z,245.00
2022-10-28T05:41:43.552Z,466.73
2022-10-28T05:43:16.051Z,552.50
2022-10-28T05:44:48.198Z,242.70
2022-10-28T05:46:22.317Z,520.17
2022-10-28T05:47:54.932Z,356.23
2022-10-28T05:49:27.365Z,231.20
2022-10-28T05:50:59.496Z,362.33
2022-10-28T05:52:31.758Z,220.10
2022-10-28T05:54:04.810Z,222.50
2022-10-28T05:55:37.115Z,318.53
2022-10-28T05:57:09.323Z,223.23
2022-10-28T05:58:41.898Z,199.43
2022-10-28T06:00:16.566Z,313.83
2022-10-28T06:01:48.840Z,170.30
2022-10-28T06:03:21.423Z,231.87
2022-10-28T06:04:53.767Z,188.70
2022-10-28T06:06:28.306Z,187.13
2022-10-28T06:08:00.756Z,165.63
2022-10-28T06:09:33.395Z,199.17
2022-10-28T06:11:04.275Z,184.33
2022-10-28T06:12:37.021Z,165.53
2022-10-28T06:14:09.249Z,137.20
2022-10-28T06:15:41.552Z,132.10
2022-10-28T06:17:14.005Z,115.50
2022-10-28T06:18:46.181Z,128.67
2022-10-28T06:20:19.497Z,107.17
2022-10-28T06:21:51.782Z,104.47
2022-10-28T06:23:27.165Z,177.33
2022-10-28T06:24:59.525Z,130.63
2022-10-28T06:26:32.061Z,100.07
2022-10-28T06:28:10.368Z,104.80
2022-10-28T06:29:42.824Z,91.80
2022-10-28T06:31:15.143Z,76.00
2022-10-28T06:32:50.635Z,80.30
2022-10-28T06:34:22.960Z,64.00
2022-10-28T06:35:59.701Z,65.83
2022-10-28T06:37:32.096Z,62.70
2022-10-28T06:39:05.472Z,59.47
2022-10-28T06:40:37.856Z,57.80
2022-10-28T06:42:10.123Z,51.47
2022-10-28T06:43:42.548Z,56.27
2022-10-28T06:45:15.015Z,54.87
2022-10-28T06:46:48.698Z,55.43
2022-10-28T06:48:21.433Z,38.53
2022-10-28T06:49:53.627Z,46.43
2022-10-28T06:51:25.892Z,69.87
2022-10-28T06:52:59.212Z,37.93
2022-10-28T06:54:32.323Z,30.37
2022-10-28T06:56:05.564Z,36.87
2022-10-28T06:57:37.914Z,29.97
2022-10-28T06:59:11.421Z,36.23
2022-10-28T07:00:43.522Z,33.10
2022-10-28T07:02:16.417Z,31.43
2022-10-28T07:03:49.486Z,34.07
2022-10-28T07:05:24.254Z,32.90
2022-10-28T07:06:57.864Z,33.67
2022-10-28T07:08:30.182Z,35.03
2022-10-28T07:10:03.866Z,32.07
2022-10-28T07:11:36.060Z,45.47
2022-10-28T07:13:08.376Z,34.53
2022-10-28T07:14:40.591Z,32.47
2022-10-28T07:16:12.963Z,32.93
2022-10-28T07:17:45.197Z,36.30
2022-10-28T07:19:21.692Z,38.77
2022-10-28T07:20:58.887Z,34.73
2022-10-28T07:22:31.126Z,34.33
2022-10-28T07:24:03.726Z,36.70
2022-10-28T07:25:36.172Z,38.47
2022-10-28T07:27:09.149Z,36.60
2022-10-28T07:28:42.895Z,35.80
2022-10-28T07:30:15.507Z,36.47
2022-10-28T07:31:47.691Z,36.00
2022-10-28T07:33:20.042Z,34.20
2022-10-28T07:34:52.435Z,35.20
2022-10-28T07:36:24.832Z,43.50
2022-10-28T07:37:58.478Z,38.07
2022-10-28T07:39:30.717Z,36.33
2022-10-28T07:41:09.166Z,39.80
2022-10-28T07:42:41.456Z,41.57
2022-10-28T07:44:14.349Z,42.77
2022-10-28T07:45:46.798Z,41.23
2022-10-28T07:47:21.422Z,44.60
2022-10-28T07:48:53.581Z,46.00
2022-10-28T07:50:26.019Z,40.93
2022-10-28T07:51:58.327Z,42.70
2022-10-28T07:53:31.042Z,36.37
2022-10-28T07:55:05.988Z,39.23
2022-10-28T07:56:38.389Z,42.60
2022-10-28T07:58:10.543Z,40.37
2022-10-28T07:59:42.778Z,39.00
2022-10-28T08:01:22.191Z,38.43
2022-10-28T08:02:54.643Z,36.43
2022-10-28T08:04:31.244Z,42.03
2022-10-28T08:06:19.716Z,41.77
2022-10-28T08:07:52.160Z,37.93
2022-10-28T08:09:25.239Z,36.70
2022-10-28T08:10:57.675Z,32.47
2022-10-28T08:12:30.748Z,33.07
2022-10-28T08:14:03.359Z,30.23
2022-10-28T08:15:35.982Z,32.90
2022-10-28T08:17:08.202Z,36.47
2022-10-28T08:18:40.720Z,32.27
2022-10-28T08:20:13.050Z,27.73
2022-10-28T08:21:46.647Z,28.87
2022-10-28T08:23:18.809Z,27.97
2022-10-28T08:24:50.961Z,29.17
2022-10-28T08:26:23.767Z,29.73
2022-10-28T08:27:57.629Z,28.80
2022-10-28T08:29:30.125Z,27.23
2022-10-28T08:31:09.461Z,22.37
2022-10-28T08:32:42.020Z,27.23
2022-10-28T08:34:14.366Z,24.80
2022-10-28T08:35:51.713Z,25.87
2022-10-28T08:37:24.047Z,27.60
2022-10-28T08:38:56.844Z,30.30
2022-10-28T08:41:20.358Z,26.33
2022-10-28T08:43:02.314Z,25.27
2022-10-28T08:44:56.888Z,24.40
2022-10-28T08:46:47.499Z,27.27
2022-10-28T08:48:36.591Z,25.90
2022-10-28T08:50:18.906Z,23.73
2022-10-28T08:51:59.436Z,27.30
2022-10-28T08:53:44.576Z,25.97
2022-10-28T08:55:38.898Z,24.27
2022-10-28T08:57:33.394Z,25.17
2022-10-28T08:59:13.814Z,26.57
2022-10-28T09:00:52.294Z,27.63
2022-10-28T09:02:31.079Z,29.40
2022-10-28T09:04:33.098Z,21.40
2022-10-28T09:06:10.977Z,25.87
2022-10-28T09:07:43.443Z,25.70
2022-10-28T09:09:22.150Z,25.53
2022-10-28T09:11:14.099Z,24.43
2022-10-28T09:13:46.201Z,21.27
2022-10-28T09:15:37.790Z,24.87
2022-10-28T09:17:58.835Z,22.40
2022-10-28T09:19:51.994Z,20.07
2022-10-28T09:22:08.886Z,21.67
2022-10-28T09:23:55.691Z,21.67
2022-10-28T09:26:10.737Z,26.83
2022-10-28T09:28:03.625Z,23.80
2022-10-28T09:30:07.587Z,22.03
2022-10-28T09:31:53.307Z,22.47
2022-10-28T09:33:31.128Z,18.57
2022-10-28T09:35:12.807Z,25.77
2022-10-28T09:37:19.966Z,24.10
2022-10-28T09:38:56.285Z,21.20
2022-10-28T09:40:36.354Z,20.20
2022-10-28T09:42:19.342Z,21.67
2022-10-28T09:44:10.797Z,23.98
2022-10-28T09:45:48.200Z,19.27
2022-10-28T09:47:32.147Z,21.42
2022-10-28T09:49:14.847Z,23.08
2022-10-28T09:50:52.719Z,24.52
2022-10-28T09:52:36.222Z,19.60
2022-10-28T09:54:10.723Z,17.38
2022-10-28T09:55:43.250Z,21.08
2022-10-28T09:57:17.370Z,19.42
2022-10-28T09:58:50.576Z,24.67
2022-10-28T10:00:23.076Z,20.10
2022-10-28T10:01:55.642Z,20.75
2022-10-28T10:03:29.364Z,19.42
2022-10-28T10:05:04.180Z,21.27
2022-10-28T10:06:42.812Z,24.10
2022-10-28T10:08:18.975Z,19.83
2022-10-28T10:09:51.718Z,20.50
2022-10-28T10:11:42.843Z,22.63
2022-10-28T10:13:21.062Z,18.85
2022-10-28T10:14:56.906Z,25.38
2022-10-28T10:16:45.231Z,17.23
2022-10-28T10:18:24.769Z,21.83
2022-10-28T10:20:19.202Z,19.00
2022-10-28T10:21:54.427Z,23.85
2022-10-28T10:23:35.062Z,19.98
2022-10-28T10:25:19.924Z,18.67
2022-10-28T10:26:53.544Z,17.20
2022-10-28T10:28:27.758Z,15.77
2022-10-28T10:30:00.242Z,14.00
2022-10-28T10:31:32.989Z,15.43
2022-10-28T10:33:13.665Z,16.40
2022-10-28T10:35:23.214Z,20.00
2022-10-28T10:36:57.067Z,19.90
2022-10-28T10:38:31.396Z,18.33
2022-10-28T10:40:24.436Z,15.45
2022-10-28T10:41:57.137Z,15.90
2022-10-28T10:43:36.540Z,17.05
2022-10-28T10:45:16.593Z,20.08
2022-10-28T10:47:05.845Z,19.30
2022-10-28T10:48:40.003Z,18.55
2022-10-28T10:50:28.919Z,19.33
2022-10-28T10:52:19.110Z,19.08
2022-10-28T10:54:01.895Z,21.27
2022-10-28T10:55:38.868Z,18.27
2022-10-28T10:57:24.980Z,17.85
2022-10-28T10:59:04.449Z,21.33
2022-10-28T11:00:44.568Z,19.45
2022-10-28T11:02:42.272Z,19.60
2022-10-28T11:04:22.285Z,21.30
2022-10-28T11:07:53.602Z,23.53
2022-10-28T11:09:36.239Z,23.17
2022-10-28T11:11:12.828Z,19.90
2022-10-28T11:13:05.663Z,19.83
2022-10-28T11:14:38.074Z,24.90
2022-10-28T11:16:24.879Z,20.08
2022-10-28T11:18:20.786Z,21.83
2022-10-28T11:20:00.714Z,21.23
2022-10-28T11:21:43.399Z,20.97
2022-10-28T11:23:41.276Z,21.07
2022-10-28T11:26:00.321Z,21.00
2022-10-28T11:27:58.789Z,21.20
2022-10-28T11:29:34.277Z,15.03
2022-10-28T11:31:31.289Z,17.53
2022-10-28T11:33:34.107Z,17.50
2022-10-28T11:35:22.494Z,15.20
2022-10-28T11:37:09.186Z,15.63
2022-10-28T11:39:19.084Z,15.17
2022-10-28T11:41:15.189Z,19.38
2022-10-28T11:43:08.442Z,14.53
2022-10-28T11:44:53.094Z,15.20
2022-10-28T11:47:00.961Z,15.83
2022-10-28T11:49:25.738Z,19.20
2022-10-28T11:51:37.468Z,19.03
2022-10-28T11:53:38.510Z,21.70
2022-10-28T11:55:48.317Z,18.73
2022-10-28T11:57:34.066Z,25.10
2022-10-28T11:59:30.797Z,20.10
2022-10-28T12:02:19.189Z,16.93
2022-10-28T12:04:36.560Z,23.80
2022-10-28T12:06:17.988Z,18.33
2022-10-28T12:08:30.170Z,22.53
2022-10-28T12:10:42.977Z,21.07
2022-10-28T12:12:33.097Z,18.43
2022-10-28T12:14:44.329Z,18.20
2022-10-28T12:16:38.910Z,20.10
2022-10-28T12:18:41.201Z,19.40
2022-10-28T12:20:37.955Z,17.93
2022-10-28T12:22:19.480Z,17.03
2022-10-28T12:23:56.321Z,16.97
2022-10-28T12:25:35.960Z,15.93
2022-10-28T12:27:24.000Z,19.60
2022-10-28T12:29:03.390Z,17.10
2022-10-28T12:30:42.144Z,15.85
2022-10-28T12:32:38.392Z,14.77
2022-10-28T12:34:20.357Z,15.68
2022-10-28T12:36:21.003Z,16.17
2022-10-28T12:38:25.327Z,14.75
2022-10-28T12:40:24.598Z,13.95
2022-10-28T12:42:30.357Z,14.50
2022-10-28T12:44:18.933Z,17.90
2022-10-28T12:45:56.579Z,20.83
2022-10-28T12:47:43.235Z,17.45
2022-10-28T12:49:47.970Z,19.27
2022-10-28T12:51:32.193Z,16.98
2022-10-28T12:53:04.338Z,15.63
2022-10-28T12:57:03.809Z,19.43
2022-10-28T12:58:46.918Z,15.43
2022-10-28T13:00:45.488Z,16.37
2022-10-28T13:02:30.072Z,22.65
2022-10-28T13:04:03.056Z,17.87
2022-10-28T13:06:03.273Z,16.07
2022-10-28T13:08:25.479Z,15.23
2022-10-28T13:10:31.535Z,16.73
2022-10-28T13:12:51.508Z,15.63
2022-10-28T13:15:01.418Z,19.08
2022-10-28T13:16:39.440Z,14.00
2022-10-28T13:19:03.625Z,18.27
2022-10-28T13:21:21.374Z,14.93
2022-10-28T13:23:51.012Z,17.10
2022-10-28T13:26:04.282Z,12.35
2022-10-28T13:29:32.475Z,14.77
2022-10-28T13:31:08.183Z,21.70
2022-10-28T13:32:41.610Z,13.05
2022-10-28T13:34:18.745Z,12.32
2022-10-28T13:35:51.684Z,12.32
2022-10-28T13:37:31.432Z,15.93
2022-10-28T13:39:21.482Z,18.05
2022-10-28T13:40:59.781Z,11.70
2022-10-28T13:42:47.915Z,14.10
2022-10-28T13:44:20.460Z,19.48
2022-10-28T13:45:56.059Z,15.57
2022-10-28T13:47:34.226Z,13.20
2022-10-28T13:49:36.213Z,11.75
2022-10-28T13:51:11.972Z,12.63
2022-10-28T13:52:46.637Z,13.95
2022-10-28T13:54:45.493Z,13.02
2022-10-28T13:56:27.107Z,13.30
2022-10-28T13:58:04.915Z,13.37
2022-10-28T13:59:59.342Z,13.77
2022-10-28T14:02:07.587Z,15.90
2022-10-28T14:03:52.590Z,20.23
2022-10-28T14:05:44.745Z,18.10
2022-10-28T14:07:24.402Z,14.60
2022-10-28T14:08:56.982Z,14.38
2022-10-28T14:10:32.698Z,13.50
2022-10-28T14:12:17.522Z,14.43
2022-10-28T14:13:59.693Z,16.10
2022-10-28T14:15:38.449Z,13.70
2022-10-28T14:17:23.824Z,13.38
2022-10-28T14:19:24.823Z,13.83
2022-10-28T14:21:01.074Z,21.90
2022-10-28T14:22:37.039Z,21.03
2022-10-28T14:24:41.606Z,13.70
2022-10-28T14:26:13.981Z,16.20
2022-10-28T14:27:46.275Z,16.53
2022-10-28T14:29:29.908Z,17.93
2022-10-28T14:31:08.310Z,14.37
2022-10-28T14:32:58.430Z,20.42
2022-10-28T14:37:35.674Z,15.90
2022-10-28T14:40:01.611Z,19.63
2022-10-28T14:42:15.815Z,20.23
2022-10-28T14:44:22.579Z,22.03
2022-10-28T14:46:39.145Z,27.30
2022-10-28T14:48:40.234Z,21.40
2022-10-28T14:50:41.086Z,23.27
2022-10-28T14:52:19.838Z,22.43
2022-10-28T14:53:58.016Z,24.67
2022-10-28T14:55:35.074Z,24.87
2022-10-28T14:57:08.304Z,31.37
2022-10-28T14:58:43.907Z,22.27
2022-10-28T15:00:23.822Z,22.80
2022-10-28T15:02:23.074Z,23.43
2022-10-28T15:04:13.084Z,30.33
2022-10-28T15:05:45.325Z,48.50
2022-10-28T15:07:20.945Z,72.47
2022-10-28T15:08:55.959Z,96.90
2022-10-28T15:10:34.051Z,106.37
2022-10-28T15:12:11.902Z,113.97
2022-10-28T15:13:44.497Z,129.73
2022-10-28T15:15:24.362Z,121.60
2022-10-28T15:16:56.994Z,75.83
2022-10-28T15:18:29.379Z,78.83
2022-10-28T15:20:30.054Z,65.83
2022-10-28T15:22:24.598Z,64.87
2022-10-28T15:24:01.847Z,69.23
2022-10-28T15:25:34.668Z,67.50
2022-10-28T15:27:11.450Z,77.63
2022-10-28T15:28:44.273Z,90.87
2022-10-28T15:30:25.267Z,90.10
2022-10-28T15:32:26.880Z,87.20
2022-10-28T15:33:59.046Z,73.70
2022-10-28T15:35:32.810Z,68.67
2022-10-28T15:37:05.839Z,70.20
2022-10-28T15:38:57.527Z,71.73
2022-10-28T15:40:35.320Z,62.10
2022-10-28T15:42:45.459Z,58.77
2022-10-28T15:44:37.070Z,55.77
2022-10-28T15:46:16.761Z,46.27
2022-10-28T15:47:49.495Z,46.13
2022-10-28T15:49:38.115Z,62.70
2022-10-28T15:51:17.247Z,78.43
2022-10-28T15:52:53.727Z,68.57
2022-10-28T15:54:28.628Z,62.20
2022-10-28T15:56:27.602Z,73.90
2022-10-28T15:58:23.391Z,92.47
2022-10-28T16:00:20.820Z,61.23
2022-10-28T16:01:58.649Z,42.23
2022-10-28T16:03:41.529Z,39.50
2022-10-28T16:05:31.751Z,36.10
2022-10-28T16:07:09.378Z,39.63
2022-10-28T16:08:41.849Z,39.97
2022-10-28T16:10:15.287Z,35.43
2022-10-28T16:11:57.432Z,42.63
2022-10-28T16:13:48.156Z,43.80
2022-10-28T16:15:21.109Z,36.27
2022-10-28T16:16:53.884Z,38.20
2022-10-28T16:18:29.760Z,42.80
2022-10-28T16:20:07.659Z,43.53
2022-10-28T16:21:40.964Z,41.77
2022-10-28T16:23:19.829Z,94.63
2022-10-28T16:24:54.363Z,98.20
2022-10-28T16:26:27.940Z,196.30
2022-10-28T16:28:00.472Z,159.00
2022-10-28T16:29:32.614Z,182.07
2022-10-28T16:31:06.259Z,258.37
2022-10-28T16:32:43.892Z,247.67
2022-10-28T16:34:16.948Z,134.70
2022-10-28T16:35:49.115Z,84.17
2022-10-28T16:37:28.869Z,62.00
2022-10-28T16:39:01.052Z,55.63
2022-10-28T16:41:03.692Z,58.43
2022-10-28T16:42:26.925Z,60.43
2022-10-28T16:43:59.126Z,53.60
2022-10-28T16:45:31.567Z,60.87
2022-10-28T16:47:19.203Z,51.20
2022-10-28T16:48:51.775Z,55.00
2022-10-28T16:50:24.453Z,54.47
2022-10-28T16:51:56.858Z,54.77
2022-10-28T16:53:29.474Z,54.23
2022-10-28T16:55:01.695Z,57.10
2022-10-28T16:56:34.629Z,50.73
2022-10-28T16:58:07.300Z,61.40
2022-10-28T16:59:39.543Z,49.37
2022-10-28T17:01:17.176Z,65.00
2022-10-28T17:02:50.917Z,65.20
2022-10-28T17:04:25.561Z,66.00
2022-10-28T17:05:57.895Z,59.37
2022-10-28T17:07:31.143Z,56.50
2022-10-28T17:09:04.093Z,59.70
2022-10-28T17:10:36.964Z,60.63
2022-10-28T17:12:18.417Z,55.67
2022-10-28T17:13:50.998Z,53.80
2022-10-28T17:15:23.511Z,60.10
2022-10-28T17:16:55.733Z,52.20
2022-10-28T17:18:28.077Z,49.53
2022-10-28T17:20:00.275Z,40.13
2022-10-28T17:21:32.550Z,41.27
2022-10-28T17:23:05.992Z,46.90
2022-10-28T17:24:39.735Z,41.07
2022-10-28T17:26:12.658Z,37.80
2022-10-28T17:27:49.025Z,41.33
2022-10-28T17:29:21.373Z,43.73
2022-10-28T17:30:54.298Z,45.47
2022-10-28T17:32:26.545Z,45.83
2022-10-28T17:33:58.877Z,43.03
2022-10-28T17:35:31.279Z,45.03
2022-10-28T17:37:03.773Z,46.40
2022-10-28T17:38:36.163Z,46.20
2022-10-28T17:40:09.041Z,52.37
2022-10-28T17:41:41.404Z,52.67
2022-10-28T17:43:14.373Z,46.37
2022-10-28T17:44:46.591Z,49.27
2022-10-28T17:46:19.397Z,53.93
2022-10-28T17:47:51.635Z,45.13
2022-10-28T17:49:23.773Z,47.07
2022-10-28T17:50:56.059Z,51.53
2022-10-28T17:52:30.193Z,52.77
2022-10-28T17:54:06.156Z,54.77
2022-10-28T17:55:38.579Z,55.67
2022-10-28T17:57:11.014Z,49.57
2022-10-28T17:58:43.182Z,59.40
2022-10-28T18:00:16.082Z,59.20
2022-10-28T18:01:48.734Z,58.77
2022-10-28T18:03:21.682Z,56.43
2022-10-28T18:04:54.187Z,61.57
2022-10-28T18:06:26.751Z,51.30
2022-10-28T18:07:59.126Z,60.87
2022-10-28T18:09:32.307Z,47.50
2022-10-28T18:11:06.786Z,53.07
2022-10-28T18:12:39.131Z,51.97
2022-10-28T18:14:11.572Z,57.83
2022-10-28T18:15:43.723Z,50.93
2022-10-28T18:17:17.457Z,50.50
2022-10-28T18:18:50.993Z,55.87
2022-10-28T18:20:23.312Z,50.33
2022-10-28T18:21:55.510Z,58.70
2022-10-28T18:23:28.142Z,56.17
2022-10-28T18:25:00.429Z,55.47
2022-10-28T18:26:38.195Z,52.87
2022-10-28T18:28:10.614Z,56.50
2022-10-28T18:29:42.814Z,54.33
2022-10-28T18:31:20.302Z,54.30
2022-10-28T18:32:53.046Z,52.30
2022-10-28T18:34:25.596Z,50.63
2022-10-28T18:36:03.417Z,54.13
2022-10-28T18:37:35.664Z,53.70
2022-10-28T18:39:08.685Z,57.13
2022-10-28T18:40:47.809Z,60.70
2022-10-28T18:42:21.946Z,60.53
2022-10-28T18:44:00.285Z,57.10
2022-10-28T18:45:32.895Z,57.87
2022-10-28T18:47:05.118Z,55.57
2022-10-28T18:48:37.917Z,55.13
2022-10-28T18:50:10.214Z,58.47
2022-10-28T18:51:42.595Z,55.67
2022-10-28T18:53:14.762Z,49.17
2022-10-28T18:54:47.044Z,56.80
2022-10-28T18:56:23.555Z,51.63
2022-10-28T18:57:56.351Z,50.03
2022-10-28T18:59:28.932Z,50.63
2022-10-28T19:01:16.203Z,56.40
2022-10-28T19:02:48.925Z,56.83
2022-10-28T19:04:21.272Z,51.37
2022-10-28T19:05:54.994Z,49.93
2022-10-28T19:07:27.157Z,58.13
2022-10-28T19:09:04.680Z,54.60
2022-10-28T19:10:37.266Z,51.70
2022-10-28T19:12:09.742Z,55.07
2022-10-28T19:13:42.499Z,54.90
2022-10-28T19:15:16.126Z,56.23
2022-10-28T19:16:48.347Z,60.20
2022-10-28T19:18:20.894Z,54.53
2022-10-28T19:19:53.677Z,60.77
2022-10-28T19:21:27.611Z,58.07
2022-10-28T19:23:01.818Z,57.47
2022-10-28T19:24:34.693Z,58.03
2022-10-28T19:26:08.454Z,55.10
2022-10-28T19:27:40.968Z,53.87
2022-10-28T19:29:13.202Z,57.37
2022-10-28T19:30:45.338Z,54.10
2022-10-28T19:32:18.007Z,51.57
2022-10-28T19:33:52.192Z,50.97
2022-10-28T19:35:24.694Z,55.30
2022-10-28T19:36:56.919Z,50.57
2022-10-28T19:38:36.542Z,52.07
2022-10-28T19:40:10.094Z,48.90
2022-10-28T19:41:43.459Z,59.73
2022-10-28T19:43:15.794Z,53.43
2022-10-28T19:44:48.173Z,60.27
2022-10-28T19:46:21.834Z,55.30
2022-10-28T19:47:54.330Z,55.80
2022-10-28T19:49:32.445Z,60.53
2022-10-28T19:51:11.802Z,55.17
2022-10-28T19:52:44.395Z,56.17
2022-10-28T19:54:17.115Z,50.23
2022-10-28T19:55:49.335Z,56.20
2022-10-28T19:57:21.500Z,52.87
2022-10-28T19:58:56.499Z,48.30
2022-10-28T20:00:29.162Z,54.87
2022-10-28T20:02:01.826Z,62.37
2022-10-28T20:03:35.075Z,52.37
2022-10-28T20:05:08.249Z,48.47
2022-10-28T20:06:41.259Z,50.17
2022-10-28T20:08:14.314Z,48.23
2022-10-28T20:09:46.591Z,49.23
2022-10-28T20:11:27.300Z,52.70
2022-10-28T20:12:59.854Z,46.20
2022-10-28T20:14:33.123Z,49.03
2022-10-28T20:16:10.782Z,49.53
2022-10-28T20:17:42.941Z,51.43
2022-10-28T20:19:15.376Z,51.97
2022-10-28T20:20:47.596Z,50.73
2022-10-28T20:22:19.833Z,48.43
2022-10-28T20:23:55.218Z,58.07
2022-10-28T20:25:28.176Z,53.93
2022-10-28T20:27:00.649Z,63.30
2022-10-28T20:28:34.458Z,47.23
2022-10-28T20:30:07.731Z,52.63
2022-10-28T20:31:40.490Z,48.50
2022-10-28T20:33:12.700Z,47.70
2022-10-28T20:34:44.839Z,52.43
2022-10-28T20:36:30.263Z,42.37
2022-10-28T20:38:02.924Z,51.17
2022-10-28T20:39:35.166Z,48.93
2022-10-28T20:41:08.904Z,49.40
2022-10-28T20:42:42.179Z,52.67
2022-10-28T20:44:15.148Z,48.70
2022-10-28T20:45:56.742Z,57.07
2022-10-28T20:47:28.965Z,52.03
2022-10-28T20:49:02.804Z,52.33
2022-10-28T20:50:35.156Z,52.70
2022-10-28T20:52:07.385Z,55.33
2022-10-28T20:53:39.989Z,51.40
2022-10-28T20:55:12.567Z,52.23
2022-10-28T20:56:44.863Z,58.37
2022-10-28T20:58:17.764Z,59.13
2022-10-28T20:59:51.637Z,55.30
2022-10-28T21:01:33.581Z,53.57
2022-10-28T21:03:06.292Z,52.13
2022-10-28T21:04:38.586Z,56.50
2022-10-28T21:07:49.957Z,63.17
2022-10-28T21:09:22.694Z,63.80
2022-10-28T21:10:55.180Z,61.03
2022-10-28T21:12:27.331Z,60.23
2022-10-28T21:14:01.595Z,58.10
2022-10-28T21:15:36.713Z,59.57